Flight Track Log - Related Links

Times and Time Zones

All times are in EDT time to prevent confusion due to time zone crossing. See the SKW5631 flight status page for this flight to view local times or setup timezone preferences in your user account.

Time Position Orientation Groundspeed Altitude Reporting Facility
EDT Latitude Longitude Course Direction KTS MPH feet Rate Location/Type
Sun 09:58:42 PM 37.6500 -122.4333 133° Southeast 180 207 2,700  Level Northern Cal TRACON
Sun 09:59:42 PM 37.6333 -122.5000 252° West 247 284 4,900 2,267 Climbing Northern Cal TRACON
Sun 10:00:12 PM 37.6050 -122.5189 208° Southwest 237 273 6,100 2,637 Climbing Oakland Center
Sun 10:01:13 PM 37.5375 -122.5594 205° Southwest 280 322 8,900 2,656 Climbing Oakland Center
Sun 10:02:14 PM 37.4642 -122.4978 146° Southeast 318 366 11,500 2,000 Climbing Oakland Center
Sun 10:03:16 PM 37.3819 -122.4194 143° Southeast 371 427 13,000 1,463 Climbing Oakland Center
Sun 10:04:00 PM 37.2187 -122.0415 133° Southeast  Level FlightAware Approximate
Sun 10:04:17 PM 37.2967 -122.3242 138° Southeast 413 475 14,500  Level Oakland Center
Sun 10:05:18 PM 37.2058 -122.2183 137° Southeast 446 513 16,100 1,561 Climbing Oakland Center
Sun 10:06:20 PM 37.0908 -122.0847 137° Southeast 469 540 17,700 1,610 Climbing Oakland Center
Sun 10:07:21 PM 36.9911 -121.9700 137° Southeast 487 560 19,400 1,525 Climbing Oakland Center
Sun 10:08:22 PM 36.8894 -121.8558 138° Southeast 490 564 20,800 1,317 Climbing Oakland Center
Sun 10:09:24 PM 36.7872 -121.7419 138° Southeast 503 579 22,100 1,180 Climbing Oakland Center
Sun 10:10:24 PM 36.6819 -121.6239 138° Southeast 508 585 23,200 1,377 Climbing Oakland Center
Sun 10:11:26 PM 36.5764 -121.5028 137° Southeast 514 592 24,900 1,512 Climbing Oakland Center
Sun 10:12:27 PM 36.4694 -121.3839 138° Southeast 515 593 26,300 1,033 Climbing Oakland Center
Sun 10:13:28 PM 36.3628 -121.2633 138° Southeast 516 594 27,000 344 Climbing Oakland Center
Sun 10:14:29 PM 36.2528 -121.1403 138° Southeast 525 604 27,000  Level Oakland Center
Sun 10:15:30 PM 36.1186 -120.9886 138° Southeast 542 624 27,000  Level Oakland Center
Sun 10:16:32 PM 36.0058 -120.8642 138° Southeast 543 625 27,000  Level Oakland Center
Sun 10:17:33 PM 35.8947 -120.7389 138° Southeast 543 625 27,000 -49 Level Oakland Center
Sun 10:18:34 PM 35.7875 -120.6200 138° Southeast 522 601 26,900 -49 Descending Oakland Center
Sun 10:19:35 PM 35.6792 -120.5017 138° Southeast 518 596 26,900 49 Level Oakland Center
Sun 10:20:36 PM 35.5614 -120.3731 138° Southeast 528 608 27,000 49 Climbing Los Angeles Center
Sun 10:21:38 PM 35.4497 -120.2514 138° Southeast 532 612 27,000  Level Los Angeles Center
Sun 10:22:39 PM 35.3397 -120.1322 139° Southeast 531 611 27,000 -97 Level Los Angeles Center
Sun 10:24:43 PM 35.1231 -119.8981 138° Southeast 518 596 26,700 -613 Descending Los Angeles Center
Sun 10:25:45 PM 35.0222 -119.7731 135° Southeast 519 597 25,100 -1,500 Descending Los Angeles Center
Sun 10:26:47 PM 34.9283 -119.6439 132° Southeast 518 596 23,600 -1,597 Descending Los Angeles Center
Sun 10:27:49 PM 34.8183 -119.4967 132° Southeast 496 571 21,800 -2,146 Descending Los Angeles Center
Sun 10:28:50 PM 34.7367 -119.3842 131° Southeast 457 526 19,200 -2,537 Descending Los Angeles Center
Sun 10:29:52 PM 34.6553 -119.2792 133° Southeast 434 499 16,600 -2,516 Descending Los Angeles Center
Sun 10:30:54 PM 34.5856 -119.1678 127° Southeast 417 480 14,000 -2,371 Descending Los Angeles Center
Sun 10:31:56 PM 34.5256 -119.0508 122° Southeast 406 467 11,700 -1,659 Descending Los Angeles Center
Sun 10:32:57 PM 34.4497 -118.9658 137° Southeast 368 423 10,600 -1,220 Descending Los Angeles Center
Sun 10:33:59 PM 34.3689 -118.8994 146° Southeast 334 384 9,200 -1,403 Descending Los Angeles Center
Sun 10:35:01 PM 34.3092 -118.8044 127° Southeast 303 349 7,700 -1,597 Descending Los Angeles Center
Sun 10:36:03 PM 34.2656 -118.7267 124° Southeast 281 323 5,900 -1,415 Descending Los Angeles Center
Sun 10:37:04 PM 34.2372 -118.6456 113° Southeast 273 314 4,800 -976 Descending Los Angeles Center
Sun 10:38:06 PM 34.2217 -118.5778 105° East 228 262 3,900 -726 Descending Los Angeles Center
Sun 10:39:08 PM 34.2083 -118.5208 106° East 201 231 3,300 -677 Descending Los Angeles Center
Sun 10:40:10 PM 34.1989 -118.4678 102° East 178 205 2,500 -829 Descending Los Angeles Center
Sun 10:41:11 PM 34.1992 -118.4197 90° East 156 180 1,600 -683 Descending Los Angeles Center
Sun 10:42:13 PM 34.1989 -118.3672 90° East 149 171 1,100 -484 Descending Los Angeles Center
Sun 10:44:00 PM 34.2000 -118.3500 90° East  Level FlightAware Approximate

Login

Don't have an account? Register now (free) for customized features, flight alerts, and more!